sensor_id;sensor_type;location;lat;lon;timestamp;pressure;altitude;pressure_sealevel;temperature;humidity
76074;BME280;64776;42.636;24.358;2023-06-24T00:02:16;90481.81;;;15.77;83.80
76074;BME280;64776;42.636;24.358;2023-06-24T00:05:17;90467.88;;;15.73;83.61
76074;BME280;64776;42.636;24.358;2023-06-24T00:08:18;90464.97;;;15.71;84.05
76074;BME280;64776;42.636;24.358;2023-06-24T00:11:19;90462.78;;;15.69;84.04
76074;BME280;64776;42.636;24.358;2023-06-24T00:14:21;90454.97;;;15.60;83.93
76074;BME280;64776;42.636;24.358;2023-06-24T00:17:22;90450.31;;;15.61;83.57
76074;BME280;64776;42.636;24.358;2023-06-24T00:20:23;90451.81;;;15.56;83.65
76074;BME280;64776;42.636;24.358;2023-06-24T00:23:24;90454.00;;;15.52;84.17
76074;BME280;64776;42.636;24.358;2023-06-24T00:26:25;90447.91;;;15.57;83.52
76074;BME280;64776;42.636;24.358;2023-06-24T00:29:27;90441.09;;;15.34;84.06
76074;BME280;64776;42.636;24.358;2023-06-24T00:32:28;90431.81;;;15.35;84.47
76074;BME280;64776;42.636;24.358;2023-06-24T00:35:29;90427.16;;;15.30;84.23
76074;BME280;64776;42.636;24.358;2023-06-24T00:38:29;90440.16;;;15.20;84.42
76074;BME280;64776;42.636;24.358;2023-06-24T00:41:30;90425.03;;;15.06;84.98
76074;BME280;64776;42.636;24.358;2023-06-24T00:44:32;90430.41;;;15.12;84.76
76074;BME280;64776;42.636;24.358;2023-06-24T00:47:34;90428.91;;;15.11;85.00
76074;BME280;64776;42.636;24.358;2023-06-24T00:50:34;90428.22;;;15.05;85.21
76074;BME280;64776;42.636;24.358;2023-06-24T00:53:35;90426.78;;;14.87;85.70
76074;BME280;64776;42.636;24.358;2023-06-24T00:56:37;90433.63;;;14.94;85.49
76074;BME280;64776;42.636;24.358;2023-06-24T00:59:40;90427.03;;;14.84;85.35
76074;BME280;64776;42.636;24.358;2023-06-24T01:02:43;90418.97;;;14.84;85.21
76074;BME280;64776;42.636;24.358;2023-06-24T01:05:44;90421.91;;;14.86;85.26
76074;BME280;64776;42.636;24.358;2023-06-24T01:08:45;90419.47;;;14.77;85.98
76074;BME280;64776;42.636;24.358;2023-06-24T01:11:47;90419.47;;;14.77;85.94
76074;BME280;64776;42.636;24.358;2023-06-24T01:14:49;90417.50;;;14.72;85.28
76074;BME280;64776;42.636;24.358;2023-06-24T01:17:55;90422.38;;;14.67;85.55
76074;BME280;64776;42.636;24.358;2023-06-24T01:21:02;90421.91;;;14.63;85.34
76074;BME280;64776;42.636;24.358;2023-06-24T01:24:20;90419.22;;;14.58;85.26
76074;BME280;64776;42.636;24.358;2023-06-24T01:31:29;90409.22;;;14.53;85.61
76074;BME280;64776;42.636;24.358;2023-06-24T01:34:35;90410.69;;;14.59;85.59
76074;BME280;64776;42.636;24.358;2023-06-24T01:37:42;90412.63;;;14.53;85.75
76074;BME280;64776;42.636;24.358;2023-06-24T01:40:44;90415.06;;;14.51;85.20
76074;BME280;64776;42.636;24.358;2023-06-24T01:43:45;90412.38;;;14.51;85.50
76074;BME280;64776;42.636;24.358;2023-06-24T01:46:51;90406.28;;;14.45;85.62
76074;BME280;64776;42.636;24.358;2023-06-24T01:49:57;90404.81;;;14.33;85.39
76074;BME280;64776;42.636;24.358;2023-06-24T01:53:01;90405.28;;;14.26;85.86
76074;BME280;64776;42.636;24.358;2023-06-24T01:56:06;90402.59;;;14.26;86.30
76074;BME280;64776;42.636;24.358;2023-06-24T01:59:09;90409.66;;;14.18;86.06
76074;BME280;64776;42.636;24.358;2023-06-24T02:02:12;90413.56;;;14.06;86.71
76074;BME280;64776;42.636;24.358;2023-06-24T02:05:14;90409.63;;;13.96;86.42
76074;BME280;64776;42.636;24.358;2023-06-24T02:08:18;90417.88;;;13.76;87.67
76074;BME280;64776;42.636;24.358;2023-06-24T02:11:21;90419.53;;;13.62;88.97
76074;BME280;64776;42.636;24.358;2023-06-24T02:14:25;90425.44;;;13.77;88.17
76074;BME280;64776;42.636;24.358;2023-06-24T02:17:28;90430.59;;;13.92;87.34
76074;BME280;64776;42.636;24.358;2023-06-24T02:20:31;90433.53;;;13.94;87.29
76074;BME280;64776;42.636;24.358;2023-06-24T02:23:33;90431.84;;;14.02;87.03
76074;BME280;64776;42.636;24.358;2023-06-24T02:26:35;90439.16;;;13.96;87.12
76074;BME280;64776;42.636;24.358;2023-06-24T02:29:37;90440.34;;;13.95;87.08
76074;BME280;64776;42.636;24.358;2023-06-24T02:32:40;90445.22;;;13.91;86.94
76074;BME280;64776;42.636;24.358;2023-06-24T02:35:41;90437.19;;;13.91;87.24
76074;BME280;64776;42.636;24.358;2023-06-24T02:38:44;90446.22;;;13.94;87.33
76074;BME280;64776;42.636;24.358;2023-06-24T02:41:45;90446.69;;;13.86;86.78
76074;BME280;64776;42.636;24.358;2023-06-24T02:44:45;90445.84;;;13.53;88.62
76074;BME280;64776;42.636;24.358;2023-06-24T02:47:49;90440.19;;;13.40;89.46
76074;BME280;64776;42.636;24.358;2023-06-24T02:50:51;90436.13;;;13.55;88.88
76074;BME280;64776;42.636;24.358;2023-06-24T02:53:52;90429.31;;;13.65;88.76
76074;BME280;64776;42.636;24.358;2023-06-24T02:56:53;90433.94;;;13.65;87.96
76074;BME280;64776;42.636;24.358;2023-06-24T02:59:55;90427.63;;;13.68;87.56
76074;BME280;64776;42.636;24.358;2023-06-24T03:02:57;90436.13;;;13.66;87.69
76074;BME280;64776;42.636;24.358;2023-06-24T03:05:59;90433.00;;;13.68;87.45
76074;BME280;64776;42.636;24.358;2023-06-24T03:09:00;90436.81;;;13.50;87.95
76074;BME280;64776;42.636;24.358;2023-06-24T03:12:01;90433.63;;;13.41;87.62
76074;BME280;64776;42.636;24.358;2023-06-24T03:15:03;90424.50;;;13.22;88.01
76074;BME280;64776;42.636;24.358;2023-06-24T03:18:05;90430.88;;;13.30;88.84
76074;BME280;64776;42.636;24.358;2023-06-24T03:21:07;90427.44;;;13.24;89.32
76074;BME280;64776;42.636;24.358;2023-06-24T03:24:08;90428.25;;;13.35;88.92
76074;BME280;64776;42.636;24.358;2023-06-24T03:27:09;90434.34;;;13.41;88.96
76074;BME280;64776;42.636;24.358;2023-06-24T03:30:11;90434.88;;;13.56;88.66
76074;BME280;64776;42.636;24.358;2023-06-24T03:33:17;90431.75;;;13.63;87.85
76074;BME280;64776;42.636;24.358;2023-06-24T03:36:18;90422.72;;;13.61;87.93
76074;BME280;64776;42.636;24.358;2023-06-24T03:39:20;90427.34;;;13.60;88.73
76074;BME280;64776;42.636;24.358;2023-06-24T03:42:21;90436.59;;;13.54;87.99
76074;BME280;64776;42.636;24.358;2023-06-24T03:45:24;90438.56;;;13.64;88.21
76074;BME280;64776;42.636;24.358;2023-06-24T03:48:26;90453.94;;;13.64;88.16
76074;BME280;64776;42.636;24.358;2023-06-24T03:51:27;90458.63;;;13.85;87.77
76074;BME280;64776;42.636;24.358;2023-06-24T03:54:27;90456.97;;;13.99;87.64
76074;BME280;64776;42.636;24.358;2023-06-24T03:57:28;90447.97;;;14.19;87.14
76074;BME280;64776;42.636;24.358;2023-06-24T04:00:29;90439.97;;;14.35;86.90
76074;BME280;64776;42.636;24.358;2023-06-24T04:03:31;90446.34;;;14.54;86.36
76074;BME280;64776;42.636;24.358;2023-06-24T04:06:32;90448.28;;;14.65;85.63
76074;BME280;64776;42.636;24.358;2023-06-24T04:09:33;90441.91;;;14.74;84.50
76074;BME280;64776;42.636;24.358;2023-06-24T04:12:34;90436.78;;;14.76;84.41
76074;BME280;64776;42.636;24.358;2023-06-24T04:15:35;90445.09;;;14.89;84.18
76074;BME280;64776;42.636;24.358;2023-06-24T04:18:37;90452.41;;;14.99;84.29
76074;BME280;64776;42.636;24.358;2023-06-24T04:21:39;90452.88;;;15.14;84.57
76074;BME280;64776;42.636;24.358;2023-06-24T04:24:39;90450.16;;;15.25;83.85
76074;BME280;64776;42.636;24.358;2023-06-24T04:27:40;90456.00;;;15.35;83.60
76074;BME280;64776;42.636;24.358;2023-06-24T04:30:41;90452.59;;;15.29;84.90
76074;BME280;64776;42.636;24.358;2023-06-24T04:33:43;90460.91;;;15.48;85.15
76074;BME280;64776;42.636;24.358;2023-06-24T04:36:44;90464.97;;;15.76;84.47
76074;BME280;64776;42.636;24.358;2023-06-24T04:39:45;90456.97;;;16.06;83.74
76074;BME280;64776;42.636;24.358;2023-06-24T04:42:46;90459.84;;;16.19;82.90
76074;BME280;64776;42.636;24.358;2023-06-24T04:45:46;90449.13;;;16.49;82.00
76074;BME280;64776;42.636;24.358;2023-06-24T04:48:49;90443.66;;;16.65;81.56
76074;BME280;64776;42.636;24.358;2023-06-24T04:51:49;90447.69;;;16.83;81.15
76074;BME280;64776;42.636;24.358;2023-06-24T04:54:50;90446.34;;;16.95;80.56
76074;BME280;64776;42.636;24.358;2023-06-24T04:57:51;90452.56;;;17.14;80.82
76074;BME280;64776;42.636;24.358;2023-06-24T05:00:52;90458.13;;;17.22;80.13
76074;BME280;64776;42.636;24.358;2023-06-24T05:03:54;90455.56;;;17.35;80.80
76074;BME280;64776;42.636;24.358;2023-06-24T05:06:55;90457.13;;;17.49;79.26
76074;BME280;64776;42.636;24.358;2023-06-24T05:09:55;90445.91;;;17.69;80.07
76074;BME280;64776;42.636;24.358;2023-06-24T05:12:56;90451.88;;;17.80;78.86
76074;BME280;64776;42.636;24.358;2023-06-24T05:15:57;90458.47;;;18.04;77.54
76074;BME280;64776;42.636;24.358;2023-06-24T05:18:59;90448.06;;;18.13;77.87
76074;BME280;64776;42.636;24.358;2023-06-24T05:22:00;90450.03;;;18.31;77.66
76074;BME280;64776;42.636;24.358;2023-06-24T05:25:01;90436.97;;;18.54;77.37
76074;BME280;64776;42.636;24.358;2023-06-24T05:28:01;90445.59;;;18.84;75.17
76074;BME280;64776;42.636;24.358;2023-06-24T05:31:02;90440.69;;;19.14;75.17
76074;BME280;64776;42.636;24.358;2023-06-24T05:34:04;90440.34;;;19.36;74.02
76074;BME280;64776;42.636;24.358;2023-06-24T05:37:05;90439.72;;;19.57;74.54
76074;BME280;64776;42.636;24.358;2023-06-24T05:40:07;90445.97;;;19.65;74.03
76074;BME280;64776;42.636;24.358;2023-06-24T05:43:07;90444.22;;;19.80;73.65
76074;BME280;64776;42.636;24.358;2023-06-24T05:46:08;90440.34;;;19.89;74.34
76074;BME280;64776;42.636;24.358;2023-06-24T05:49:11;90434.09;;;20.07;73.17
76074;BME280;64776;42.636;24.358;2023-06-24T05:52:15;90433.25;;;20.25;73.58
76074;BME280;64776;42.636;24.358;2023-06-24T05:55:15;90434.03;;;20.46;72.88
76074;BME280;64776;42.636;24.358;2023-06-24T05:58:16;90437.16;;;20.50;72.66
76074;BME280;64776;42.636;24.358;2023-06-24T06:01:17;90431.88;;;20.65;73.05
76074;BME280;64776;42.636;24.358;2023-06-24T06:04:19;90439.13;;;20.83;71.93
76074;BME280;64776;42.636;24.358;2023-06-24T06:07:20;90437.91;;;20.92;70.73
76074;BME280;64776;42.636;24.358;2023-06-24T06:10:22;90438.81;;;21.08;70.24
76074;BME280;64776;42.636;24.358;2023-06-24T06:13:23;90434.25;;;21.02;70.47
76074;BME280;64776;42.636;24.358;2023-06-24T06:16:23;90445.50;;;21.06;70.51
76074;BME280;64776;42.636;24.358;2023-06-24T06:19:26;90439.81;;;21.18;70.47
76074;BME280;64776;42.636;24.358;2023-06-24T06:22:26;90437.69;;;21.24;70.57
76074;BME280;64776;42.636;24.358;2023-06-24T06:25:27;90426.16;;;21.51;68.38
76074;BME280;64776;42.636;24.358;2023-06-24T06:32:26;90429.75;;;22.10;65.03
76074;BME280;64776;42.636;24.358;2023-06-24T06:35:28;90420.88;;;22.53;65.63
76074;BME280;64776;42.636;24.358;2023-06-24T06:38:29;90426.03;;;22.72;62.89
76074;BME280;64776;42.636;24.358;2023-06-24T06:41:29;90417.00;;;22.92;58.30
76074;BME280;64776;42.636;24.358;2023-06-24T06:44:30;90428.28;;;23.18;59.00
76074;BME280;64776;42.636;24.358;2023-06-24T06:47:31;90432.31;;;23.32;56.58
76074;BME280;64776;42.636;24.358;2023-06-24T06:50:33;90424.84;;;23.33;57.07
76074;BME280;64776;42.636;24.358;2023-06-24T06:53:34;90425.03;;;23.50;58.08
76074;BME280;64776;42.636;24.358;2023-06-24T06:56:34;90409.41;;;23.58;57.99
76074;BME280;64776;42.636;24.358;2023-06-24T06:59:35;90424.09;;;23.85;58.01
76074;BME280;64776;42.636;24.358;2023-06-24T07:02:36;90423.91;;;23.98;58.02
76074;BME280;64776;42.636;24.358;2023-06-24T07:05:38;90419.19;;;24.06;58.41
76074;BME280;64776;42.636;24.358;2023-06-24T07:08:39;90425.66;;;24.26;57.01
76074;BME280;64776;42.636;24.358;2023-06-24T07:11:39;90430.31;;;24.48;56.14
76074;BME280;64776;42.636;24.358;2023-06-24T07:14:40;90435.19;;;24.57;56.99
76074;BME280;64776;42.636;24.358;2023-06-24T07:17:41;90433.88;;;24.66;58.93
76074;BME280;64776;42.636;24.358;2023-06-24T07:20:43;90432.91;;;24.86;57.73
76074;BME280;64776;42.636;24.358;2023-06-24T07:23:44;90440.66;;;24.97;57.13
76074;BME280;64776;42.636;24.358;2023-06-24T07:26:45;90436.66;;;24.98;58.86
76074;BME280;64776;42.636;24.358;2023-06-24T07:29:45;90437.31;;;25.06;58.21
76074;BME280;64776;42.636;24.358;2023-06-24T07:32:46;90432.56;;;25.14;56.94
76074;BME280;64776;42.636;24.358;2023-06-24T07:35:48;90428.53;;;25.15;56.25
76074;BME280;64776;42.636;24.358;2023-06-24T07:38:49;90434.94;;;25.42;56.87
76074;BME280;64776;42.636;24.358;2023-06-24T07:41:50;90431.53;;;25.27;55.16
76074;BME280;64776;42.636;24.358;2023-06-24T07:44:50;90436.06;;;25.32;57.24
76074;BME280;64776;42.636;24.358;2023-06-24T07:47:51;90431.06;;;25.45;55.00
76074;BME280;64776;42.636;24.358;2023-06-24T07:50:54;90438.00;;;25.71;54.00
76074;BME280;64776;42.636;24.358;2023-06-24T07:53:54;90440.78;;;25.88;53.59
76074;BME280;64776;42.636;24.358;2023-06-24T07:56:55;90433.66;;;26.10;53.45
76074;BME280;64776;42.636;24.358;2023-06-24T07:59:57;90433.38;;;25.98;54.08
76074;BME280;64776;42.636;24.358;2023-06-24T08:02:58;90433.28;;;26.06;53.42
76074;BME280;64776;42.636;24.358;2023-06-24T08:06:00;90434.28;;;26.18;53.49
76074;BME280;64776;42.636;24.358;2023-06-24T08:09:01;90434.63;;;26.22;53.34
76074;BME280;64776;42.636;24.358;2023-06-24T08:12:02;90440.41;;;26.26;53.27
76074;BME280;64776;42.636;24.358;2023-06-24T08:15:03;90436.56;;;26.46;53.77
76074;BME280;64776;42.636;24.358;2023-06-24T08:18:04;90434.63;;;26.56;51.89
76074;BME280;64776;42.636;24.358;2023-06-24T08:21:06;90440.09;;;26.73;53.83
76074;BME280;64776;42.636;24.358;2023-06-24T08:24:07;90448.47;;;26.75;52.66
76074;BME280;64776;42.636;24.358;2023-06-24T08:27:08;90444.28;;;26.74;52.59
76074;BME280;64776;42.636;24.358;2023-06-24T08:30:10;90444.09;;;26.89;53.87
76074;BME280;64776;42.636;24.358;2023-06-24T08:33:10;90452.09;;;27.04;54.48
76074;BME280;64776;42.636;24.358;2023-06-24T08:36:13;90445.41;;;27.42;55.21
76074;BME280;64776;42.636;24.358;2023-06-24T08:39:13;90441.59;;;27.64;53.45
76074;BME280;64776;42.636;24.358;2023-06-24T08:42:14;90452.00;;;27.65;53.11
76074;BME280;64776;42.636;24.358;2023-06-24T08:45:15;90442.25;;;27.91;53.17
76074;BME280;64776;42.636;24.358;2023-06-24T08:48:17;90447.94;;;27.57;52.90
76074;BME280;64776;42.636;24.358;2023-06-24T08:51:24;90449.28;;;27.65;53.63
76074;BME280;64776;42.636;24.358;2023-06-24T08:54:28;90444.94;;;27.98;53.01
76074;BME280;64776;42.636;24.358;2023-06-24T08:57:30;90440.47;;;28.32;51.27
76074;BME280;64776;42.636;24.358;2023-06-24T09:00:32;90438.78;;;28.55;50.47
76074;BME280;64776;42.636;24.358;2023-06-24T09:03:33;90442.53;;;28.41;51.66
76074;BME280;64776;42.636;24.358;2023-06-24T09:06:35;90436.59;;;28.25;51.75
76074;BME280;64776;42.636;24.358;2023-06-24T09:09:42;90433.69;;;28.42;51.20
76074;BME280;64776;42.636;24.358;2023-06-24T09:12:44;90440.06;;;28.54;51.56
76074;BME280;64776;42.636;24.358;2023-06-24T09:15:45;90429.66;;;29.01;50.29
76074;BME280;64776;42.636;24.358;2023-06-24T09:18:47;90430.06;;;29.16;48.43
76074;BME280;64776;42.636;24.358;2023-06-24T09:21:50;90431.03;;;29.40;51.90
76074;BME280;64776;42.636;24.358;2023-06-24T09:24:50;90432.66;;;29.14;50.51
76074;BME280;64776;42.636;24.358;2023-06-24T09:27:51;90427.91;;;29.15;50.46
76074;BME280;64776;42.636;24.358;2023-06-24T09:31:04;90425.78;;;28.84;51.03
76074;BME280;64776;42.636;24.358;2023-06-24T09:34:05;90424.19;;;28.81;49.55
76074;BME280;64776;42.636;24.358;2023-06-24T09:37:10;90418.41;;;28.77;50.30
76074;BME280;64776;42.636;24.358;2023-06-24T09:40:11;90407.41;;;28.96;49.94
76074;BME280;64776;42.636;24.358;2023-06-24T09:43:20;90420.97;;;29.14;49.84
76074;BME280;64776;42.636;24.358;2023-06-24T09:46:21;90427.88;;;29.34;48.61
76074;BME280;64776;42.636;24.358;2023-06-24T09:49:22;90422.84;;;29.21;50.62
76074;BME280;64776;42.636;24.358;2023-06-24T09:52:25;90423.81;;;29.35;50.49
76074;BME280;64776;42.636;24.358;2023-06-24T09:55:27;90419.06;;;29.26;48.54
76074;BME280;64776;42.636;24.358;2023-06-24T09:58:31;90420.78;;;29.31;49.81
76074;BME280;64776;42.636;24.358;2023-06-24T10:01:37;90424.03;;;29.58;48.48
76074;BME280;64776;42.636;24.358;2023-06-24T10:04:38;90428.47;;;29.72;48.18
76074;BME280;64776;42.636;24.358;2023-06-24T10:07:42;90427.69;;;29.41;48.74
76074;BME280;64776;42.636;24.358;2023-06-24T10:10:43;90427.38;;;29.56;50.02
76074;BME280;64776;42.636;24.358;2023-06-24T10:13:44;90424.25;;;29.81;47.50
76074;BME280;64776;42.636;24.358;2023-06-24T10:16:45;90421.50;;;29.81;47.86
76074;BME280;64776;42.636;24.358;2023-06-24T10:19:47;90429.63;;;29.79;49.12
76074;BME280;64776;42.636;24.358;2023-06-24T10:22:50;90431.19;;;29.82;48.02
76074;BME280;64776;42.636;24.358;2023-06-24T10:25:51;90422.38;;;30.05;47.09
76074;BME280;64776;42.636;24.358;2023-06-24T10:29:09;90419.88;;;30.39;45.73
76074;BME280;64776;42.636;24.358;2023-06-24T10:32:10;90421.53;;;30.02;49.15
76074;BME280;64776;42.636;24.358;2023-06-24T10:35:22;90420.59;;;29.88;48.77
76074;BME280;64776;42.636;24.358;2023-06-24T10:38:24;90426.25;;;30.11;49.54
76074;BME280;64776;42.636;24.358;2023-06-24T10:41:25;90414.25;;;30.28;46.54
76074;BME280;64776;42.636;24.358;2023-06-24T10:44:26;90417.00;;;29.76;48.13
76074;BME280;64776;42.636;24.358;2023-06-24T10:47:28;90412.09;;;30.05;50.84
76074;BME280;64776;42.636;24.358;2023-06-24T10:50:29;90406.97;;;30.11;47.93
76074;BME280;64776;42.636;24.358;2023-06-24T10:53:32;90397.34;;;30.22;48.49
76074;BME280;64776;42.636;24.358;2023-06-24T10:56:33;90384.22;;;30.41;47.22
76074;BME280;64776;42.636;24.358;2023-06-24T10:59:34;90375.00;;;30.27;49.05
76074;BME280;64776;42.636;24.358;2023-06-24T11:02:35;90364.19;;;30.41;48.10
76074;BME280;64776;42.636;24.358;2023-06-24T11:05:38;90365.41;;;30.71;47.13
76074;BME280;64776;42.636;24.358;2023-06-24T11:08:44;90361.19;;;30.91;49.49
76074;BME280;64776;42.636;24.358;2023-06-24T11:11:45;90351.66;;;30.82;47.02
76074;BME280;64776;42.636;24.358;2023-06-24T11:14:46;90355.91;;;30.95;46.58
76074;BME280;64776;42.636;24.358;2023-06-24T11:17:50;90350.91;;;30.70;47.71
76074;BME280;64776;42.636;24.358;2023-06-24T11:20:54;90343.94;;;30.69;46.05
76074;BME280;64776;42.636;24.358;2023-06-24T11:24:00;90340.25;;;30.76;45.67
76074;BME280;64776;42.636;24.358;2023-06-24T11:27:03;90347.03;;;30.31;46.63
76074;BME280;64776;42.636;24.358;2023-06-24T11:30:05;90333.69;;;30.48;48.28
76074;BME280;64776;42.636;24.358;2023-06-24T11:33:06;90336.63;;;31.06;44.99
76074;BME280;64776;42.636;24.358;2023-06-24T11:36:09;90339.38;;;30.95;44.21
76074;BME280;64776;42.636;24.358;2023-06-24T11:39:21;90343.22;;;31.01;43.84
76074;BME280;64776;42.636;24.358;2023-06-24T11:42:23;90341.78;;;31.00;44.26
76074;BME280;64776;42.636;24.358;2023-06-24T11:45:24;90339.59;;;30.87;44.03
76074;BME280;64776;42.636;24.358;2023-06-24T11:48:27;90334.00;;;30.97;45.78
76074;BME280;64776;42.636;24.358;2023-06-24T11:51:28;90328.88;;;31.49;45.09
76074;BME280;64776;42.636;24.358;2023-06-24T11:54:40;90322.16;;;31.64;42.21
76074;BME280;64776;42.636;24.358;2023-06-24T11:57:53;90323.03;;;31.78;45.15
76074;BME280;64776;42.636;24.358;2023-06-24T12:00:56;90321.31;;;31.26;43.57
76074;BME280;64776;42.636;24.358;2023-06-24T12:03:56;90316.56;;;31.50;44.32
76074;BME280;64776;42.636;24.358;2023-06-24T12:06:57;90304.91;;;31.52;43.79
76074;BME280;64776;42.636;24.358;2023-06-24T12:10:00;90309.94;;;31.55;44.50
76074;BME280;64776;42.636;24.358;2023-06-24T12:13:02;90315.22;;;31.40;44.01
76074;BME280;64776;42.636;24.358;2023-06-24T12:16:03;90307.28;;;31.22;44.86
76074;BME280;64776;42.636;24.358;2023-06-24T12:19:04;90303.72;;;30.76;47.21
76074;BME280;64776;42.636;24.358;2023-06-24T12:22:05;90298.25;;;30.54;46.60
76074;BME280;64776;42.636;24.358;2023-06-24T12:25:08;90303.00;;;30.42;47.28
76074;BME280;64776;42.636;24.358;2023-06-24T12:28:09;90299.88;;;30.36;46.88
76074;BME280;64776;42.636;24.358;2023-06-24T12:31:10;90286.28;;;29.96;47.38
76074;BME280;64776;42.636;24.358;2023-06-24T12:34:11;90289.91;;;29.78;46.80
76074;BME280;64776;42.636;24.358;2023-06-24T12:37:12;90290.94;;;29.72;47.01
76074;BME280;64776;42.636;24.358;2023-06-24T12:40:14;90286.50;;;29.58;48.22
76074;BME280;64776;42.636;24.358;2023-06-24T12:43:15;90280.84;;;29.35;48.09
76074;BME280;64776;42.636;24.358;2023-06-24T12:46:16;90278.78;;;29.05;48.50
76074;BME280;64776;42.636;24.358;2023-06-24T12:49:17;90272.81;;;28.77;49.14
76074;BME280;64776;42.636;24.358;2023-06-24T12:52:18;90267.06;;;28.73;49.28
76074;BME280;64776;42.636;24.358;2023-06-24T12:55:20;90274.63;;;29.04;49.25
76074;BME280;64776;42.636;24.358;2023-06-24T12:58:23;90276.44;;;29.51;51.83
76074;BME280;64776;42.636;24.358;2023-06-24T13:01:24;90277.50;;;29.88;48.76
76074;BME280;64776;42.636;24.358;2023-06-24T13:04:25;90264.59;;;29.91;47.26
76074;BME280;64776;42.636;24.358;2023-06-24T13:07:25;90263.16;;;30.43;48.15
76074;BME280;64776;42.636;24.358;2023-06-24T13:10:28;90263.84;;;30.32;47.15
76074;BME280;64776;42.636;24.358;2023-06-24T13:13:28;90273.81;;;29.95;46.40
76074;BME280;64776;42.636;24.358;2023-06-24T13:16:29;90282.28;;;29.36;48.90
76074;BME280;64776;42.636;24.358;2023-06-24T13:19:30;90279.19;;;29.11;49.10
76074;BME280;64776;42.636;24.358;2023-06-24T13:22:31;90300.97;;;28.87;50.03
76074;BME280;64776;42.636;24.358;2023-06-24T13:25:33;90306.00;;;28.41;51.11
76074;BME280;64776;42.636;24.358;2023-06-24T13:28:33;90309.63;;;28.25;51.78
76074;BME280;64776;42.636;24.358;2023-06-24T13:31:34;90340.03;;;26.89;55.63
76074;BME280;64776;42.636;24.358;2023-06-24T13:34:36;90337.72;;;25.32;57.48
76074;BME280;64776;42.636;24.358;2023-06-24T14:18:05;90380.22;;;21.61;65.40
76074;BME280;64776;42.636;24.358;2023-06-24T14:21:06;90376.16;;;21.47;66.35
76074;BME280;64776;42.636;24.358;2023-06-24T14:24:07;90362.34;;;21.73;65.62
76074;BME280;64776;42.636;24.358;2023-06-24T14:27:08;90360.50;;;21.68;65.16
76074;BME280;64776;42.636;24.358;2023-06-24T14:30:09;90374.66;;;22.02;65.04
76074;BME280;64776;42.636;24.358;2023-06-24T14:33:12;90377.84;;;21.93;65.10
76074;BME280;64776;42.636;24.358;2023-06-24T14:36:13;90380.47;;;22.06;65.11
76074;BME280;64776;42.636;24.358;2023-06-24T14:39:15;90372.34;;;22.14;66.64
76074;BME280;64776;42.636;24.358;2023-06-24T14:42:16;90359.84;;;22.11;66.70
76074;BME280;64776;42.636;24.358;2023-06-24T14:45:16;90352.00;;;22.07;68.04
76074;BME280;64776;42.636;24.358;2023-06-24T14:48:19;90335.69;;;22.00;67.87
76074;BME280;64776;42.636;24.358;2023-06-24T14:51:19;90323.72;;;21.95;66.81
76074;BME280;64776;42.636;24.358;2023-06-24T14:54:21;90303.06;;;22.00;67.81
76074;BME280;64776;42.636;24.358;2023-06-24T14:57:22;90315.28;;;22.21;67.12
76074;BME280;64776;42.636;24.358;2023-06-24T15:00:24;90330.50;;;22.24;66.80
76074;BME280;64776;42.636;24.358;2023-06-24T15:03:26;90337.66;;;21.92;68.94
76074;BME280;64776;42.636;24.358;2023-06-24T15:06:27;90349.00;;;21.82;70.08
76074;BME280;64776;42.636;24.358;2023-06-24T15:09:27;90359.50;;;21.50;71.12
76074;BME280;64776;42.636;24.358;2023-06-24T15:12:28;90354.56;;;21.77;70.94
76074;BME280;64776;42.636;24.358;2023-06-24T15:15:29;90361.75;;;21.95;70.52
76074;BME280;64776;42.636;24.358;2023-06-24T15:18:31;90363.47;;;22.13;70.29
76074;BME280;64776;42.636;24.358;2023-06-24T15:21:32;90364.25;;;22.29;67.46
76074;BME280;64776;42.636;24.358;2023-06-24T15:24:32;90360.22;;;22.22;68.31
76074;BME280;64776;42.636;24.358;2023-06-24T15:27:33;90370.41;;;22.29;66.76
76074;BME280;64776;42.636;24.358;2023-06-24T15:30:34;90376.25;;;22.48;65.98
76074;BME280;64776;42.636;24.358;2023-06-24T15:33:37;90375.53;;;22.48;66.19
76074;BME280;64776;42.636;24.358;2023-06-24T15:36:37;90373.50;;;22.33;66.39
76074;BME280;64776;42.636;24.358;2023-06-24T15:39:38;90366.81;;;22.42;66.95
76074;BME280;64776;42.636;24.358;2023-06-24T15:42:39;90372.25;;;22.42;66.12
76074;BME280;64776;42.636;24.358;2023-06-24T15:45:40;90370.06;;;22.40;66.14
76074;BME280;64776;42.636;24.358;2023-06-24T15:48:42;90361.72;;;22.38;66.70
76074;BME280;64776;42.636;24.358;2023-06-24T15:51:42;90360.28;;;22.37;66.90
76074;BME280;64776;42.636;24.358;2023-06-24T15:54:43;90361.53;;;22.36;67.26
76074;BME280;64776;42.636;24.358;2023-06-24T15:57:44;90356.63;;;22.27;68.04
76074;BME280;64776;42.636;24.358;2023-06-24T16:00:45;90355.50;;;22.15;69.49
76074;BME280;64776;42.636;24.358;2023-06-24T16:03:47;90363.13;;;22.24;69.93
76074;BME280;64776;42.636;24.358;2023-06-24T16:06:48;90363.69;;;22.30;69.61
76074;BME280;64776;42.636;24.358;2023-06-24T16:09:48;90360.28;;;22.37;69.21
76074;BME280;64776;42.636;24.358;2023-06-24T16:12:49;90356.28;;;22.38;68.34
76074;BME280;64776;42.636;24.358;2023-06-24T16:15:50;90363.56;;;22.43;68.06
76074;BME280;64776;42.636;24.358;2023-06-24T16:18:52;90372.22;;;22.27;69.39
76074;BME280;64776;42.636;24.358;2023-06-24T16:21:53;90378.72;;;22.24;69.46
76074;BME280;64776;42.636;24.358;2023-06-24T16:24:54;90376.44;;;22.00;70.05
76074;BME280;64776;42.636;24.358;2023-06-24T16:27:54;90355.06;;;21.96;70.69
76074;BME280;64776;42.636;24.358;2023-06-24T16:30:55;90349.28;;;22.00;70.24
76074;BME280;64776;42.636;24.358;2023-06-24T16:33:57;90351.03;;;21.82;70.73
76074;BME280;64776;42.636;24.358;2023-06-24T16:36:58;90356.69;;;21.63;71.50
76074;BME280;64776;42.636;24.358;2023-06-24T16:39:59;90353.34;;;21.50;72.42